JSA792 ROAH-WSSS
Flight info
| Callsign | JSA792 |
|---|---|
| Flight time | 4h 56m |
| Altitude | 34000 |
| Route | OLVAL V91 MJC G581 TULTO Q13 GLOOM/N0458F360 Q13 KABAM N892 MIGUG/K0833F360 N892 MELAS/N0445F360 N892 MABAL MABAL2B |
| Aircraft | A320/M-SDE3FGHIRWY/LB1 |
Departure
| Time | 2026-05-04 04:18 |
|---|---|
| Airport | Naha International Airport (ROAH) |
Arrival
| Time | 2026-05-04 09:14 |
|---|---|
| Airport | Singapore Changi Airport (WSSS) |
| Time | Latitude | Longitude | Altitude | Speed | Heading |
|---|---|---|---|---|---|
| 2026-05-04 03:34 | 26.20566 | 127.64934 | 22 ft | 0 kts | 146° |
| 2026-05-04 04:08 | 26.20568 | 127.64932 | 22 ft | 2 kts | 146° |
| 2026-05-04 04:08 | 26.20590 | 127.64916 | 22 ft | 4 kts | 152° |
| 2026-05-04 04:09 | 26.20614 | 127.64907 | 22 ft | 4 kts | 182° |
| 2026-05-04 04:09 | 26.20634 | 127.64914 | 22 ft | 4 kts | 247° |
| 2026-05-04 04:09 | 26.20637 | 127.64923 | 22 ft | 0 kts | 268° |
| 2026-05-04 04:11 | 26.20637 | 127.64920 | 22 ft | 2 kts | 268° |
| 2026-05-04 04:12 | 26.20636 | 127.64883 | 22 ft | 8 kts | 268° |
| 2026-05-04 04:12 | 26.20623 | 127.64798 | 22 ft | 13 kts | 234° |
| 2026-05-04 04:12 | 26.20545 | 127.64756 | 22 ft | 13 kts | 181° |
| 2026-05-04 04:12 | 26.20445 | 127.64761 | 22 ft | 18 kts | 178° |
| 2026-05-04 04:13 | 26.20350 | 127.64765 | 23 ft | 22 kts | 178° |
| 2026-05-04 04:13 | 26.20139 | 127.64775 | 22 ft | 23 kts | 177° |
| 2026-05-04 04:13 | 26.20029 | 127.64780 | 22 ft | 24 kts | 178° |
| 2026-05-04 04:13 | 26.19855 | 127.64789 | 22 ft | 26 kts | 176° |
| 2026-05-04 04:14 | 26.19678 | 127.64798 | 22 ft | 26 kts | 178° |
| 2026-05-04 04:14 | 26.19494 | 127.64806 | 24 ft | 27 kts | 178° |
| 2026-05-04 04:14 | 26.19242 | 127.64817 | 22 ft | 27 kts | 177° |
| 2026-05-04 04:14 | 26.19118 | 127.64823 | 22 ft | 27 kts | 178° |
| 2026-05-04 04:15 | 26.18926 | 127.64833 | 22 ft | 28 kts | 177° |
| 2026-05-04 04:15 | 26.18731 | 127.64842 | 22 ft | 27 kts | 178° |
| 2026-05-04 04:15 | 26.18553 | 127.64851 | 22 ft | 25 kts | 178° |
| 2026-05-04 04:15 | 26.18391 | 127.64858 | 22 ft | 21 kts | 178° |
| 2026-05-04 04:16 | 26.18282 | 127.64858 | 22 ft | 10 kts | 194° |
| 2026-05-04 04:16 | 26.18245 | 127.64799 | 24 ft | 11 kts | 266° |
| 2026-05-04 04:16 | 26.18241 | 127.64713 | 21 ft | 8 kts | 270° |
| 2026-05-04 04:16 | 26.18263 | 127.64659 | 23 ft | 7 kts | 325° |
| 2026-05-04 04:17 | 26.18327 | 127.64652 | 21 ft | 20 kts | 358° |
| 2026-05-04 04:17 | 26.18710 | 127.64635 | 24 ft | 88 kts | 358° |
| 2026-05-04 04:17 | 26.19505 | 127.64597 | 23 ft | 139 kts | 358° |
| 2026-05-04 04:17 | 26.20600 | 127.64550 | 182 ft | 165 kts | 359° |
| 2026-05-04 04:18 | 26.21735 | 127.64495 | 829 ft | 161 kts | 358° |
| 2026-05-04 04:18 | 26.22855 | 127.64422 | 1445 ft | 161 kts | 357° |
| 2026-05-04 04:18 | 26.23993 | 127.64341 | 1932 ft | 170 kts | 357° |
| 2026-05-04 04:18 | 26.25246 | 127.64197 | 2105 ft | 193 kts | 344° |
| 2026-05-04 04:19 | 26.26372 | 127.63267 | 2263 ft | 218 kts | 311° |
| 2026-05-04 04:19 | 26.27351 | 127.61885 | 2513 ft | 242 kts | 316° |
| 2026-05-04 04:19 | 26.28766 | 127.60802 | 3034 ft | 252 kts | 334° |
| 2026-05-04 04:19 | 26.30339 | 127.59916 | 3818 ft | 255 kts | 335° |
| 2026-05-04 04:20 | 26.31958 | 127.59060 | 4575 ft | 260 kts | 335° |
| 2026-05-04 04:20 | 26.33618 | 127.58204 | 5292 ft | 266 kts | 335° |
| 2026-05-04 04:20 | 26.35317 | 127.57330 | 5980 ft | 272 kts | 335° |
| 2026-05-04 04:20 | 26.37043 | 127.56438 | 6681 ft | 276 kts | 334° |
| 2026-05-04 04:21 | 26.38792 | 127.55527 | 7390 ft | 279 kts | 332° |
| 2026-05-04 04:21 | 26.40373 | 127.54269 | 8025 ft | 282 kts | 310° |
| 2026-05-04 04:21 | 26.41392 | 127.52403 | 8637 ft | 285 kts | 287° |
| 2026-05-04 04:21 | 26.41663 | 127.50232 | 9260 ft | 285 kts | 264° |
| 2026-05-04 04:22 | 26.41144 | 127.48113 | 9883 ft | 286 kts | 241° |
| 2026-05-04 04:22 | 26.39975 | 127.46314 | 10418 ft | 293 kts | 229° |
| 2026-05-04 04:22 | 26.38527 | 127.44605 | 10541 ft | 313 kts | 224° |
| 2026-05-04 04:22 | 26.36854 | 127.42942 | 10747 ft | 329 kts | 219° |
| 2026-05-04 04:23 | 26.35008 | 127.41394 | 11248 ft | 335 kts | 215° |
| 2026-05-04 04:23 | 26.33025 | 127.40017 | 11842 ft | 337 kts | 210° |
| 2026-05-04 04:23 | 26.30923 | 127.38841 | 12445 ft | 339 kts | 205° |
| 2026-05-04 04:23 | 26.28711 | 127.37891 | 13023 ft | 342 kts | 200° |
| 2026-05-04 04:24 | 26.26409 | 127.37172 | 13560 ft | 346 kts | 195° |
| 2026-05-04 04:24 | 26.24026 | 127.36694 | 14068 ft | 350 kts | 190° |
| 2026-05-04 04:24 | 26.21615 | 127.36472 | 14577 ft | 355 kts | 184° |
| 2026-05-04 04:24 | 26.19131 | 127.36520 | 15070 ft | 360 kts | 179° |
| 2026-05-04 04:25 | 26.16628 | 127.36856 | 15555 ft | 365 kts | 173° |
| 2026-05-04 04:25 | 26.14137 | 127.37489 | 16040 ft | 370 kts | 167° |
| 2026-05-04 04:25 | 26.11646 | 127.38260 | 16498 ft | 371 kts | 173° |
| 2026-05-04 04:25 | 26.09084 | 127.38394 | 16943 ft | 368 kts | 189° |
| 2026-05-04 04:26 | 26.06608 | 127.37746 | 17387 ft | 366 kts | 205° |
| 2026-05-04 04:26 | 26.04404 | 127.36360 | 17837 ft | 365 kts | 220° |
| 2026-05-04 04:26 | 26.02627 | 127.34353 | 18286 ft | 365 kts | 235° |
| 2026-05-04 04:26 | 26.01197 | 127.32011 | 18732 ft | 368 kts | 237° |
| 2026-05-04 04:27 | 25.99778 | 127.29640 | 19186 ft | 370 kts | 237° |
| 2026-05-04 04:27 | 25.98348 | 127.27243 | 19609 ft | 374 kts | 237° |
| 2026-05-04 04:27 | 25.96901 | 127.24827 | 20016 ft | 377 kts | 237° |
| 2026-05-04 04:27 | 25.95442 | 127.22394 | 20429 ft | 380 kts | 237° |
| 2026-05-04 04:28 | 25.93971 | 127.19940 | 20850 ft | 383 kts | 237° |
| 2026-05-04 04:28 | 25.92490 | 127.17469 | 21267 ft | 386 kts | 237° |
| 2026-05-04 04:28 | 25.90998 | 127.14981 | 21670 ft | 388 kts | 237° |
| 2026-05-04 04:28 | 25.89492 | 127.12479 | 22056 ft | 391 kts | 237° |
| 2026-05-04 04:29 | 25.87975 | 127.09964 | 22429 ft | 393 kts | 237° |
| 2026-05-04 04:29 | 25.86448 | 127.07428 | 22789 ft | 396 kts | 237° |
| 2026-05-04 04:29 | 25.84915 | 127.04879 | 23134 ft | 398 kts | 237° |
| 2026-05-04 04:29 | 25.83376 | 127.02316 | 23471 ft | 400 kts | 237° |
| 2026-05-04 04:30 | 25.81824 | 126.99740 | 23792 ft | 403 kts | 237° |
| 2026-05-04 04:30 | 25.80279 | 126.97183 | 24102 ft | 405 kts | 237° |
| 2026-05-04 04:30 | 25.78705 | 126.94579 | 24407 ft | 407 kts | 237° |
| 2026-05-04 04:30 | 25.77125 | 126.91964 | 24708 ft | 409 kts | 237° |
| 2026-05-04 04:31 | 25.75537 | 126.89340 | 25000 ft | 411 kts | 237° |
| 2026-05-04 04:31 | 25.73938 | 126.86703 | 25297 ft | 413 kts | 237° |
| 2026-05-04 04:31 | 25.72334 | 126.84057 | 25582 ft | 414 kts | 237° |
| 2026-05-04 04:31 | 25.70721 | 126.81398 | 25863 ft | 416 kts | 237° |
| 2026-05-04 04:32 | 25.69102 | 126.78729 | 26137 ft | 418 kts | 237° |
| 2026-05-04 04:32 | 25.67478 | 126.76050 | 26410 ft | 420 kts | 237° |
| 2026-05-04 04:32 | 25.65846 | 126.73356 | 26671 ft | 422 kts | 237° |
| 2026-05-04 04:32 | 25.64210 | 126.70652 | 26928 ft | 423 kts | 237° |
| 2026-05-04 04:33 | 25.62565 | 126.67938 | 27177 ft | 425 kts | 237° |
| 2026-05-04 04:33 | 25.60911 | 126.65222 | 27424 ft | 426 kts | 236° |
| 2026-05-04 04:33 | 25.59248 | 126.62495 | 27670 ft | 428 kts | 236° |
| 2026-05-04 04:33 | 25.57578 | 126.59760 | 27916 ft | 430 kts | 236° |
| 2026-05-04 04:34 | 25.55898 | 126.57013 | 28143 ft | 431 kts | 236° |
| 2026-05-04 04:34 | 25.54218 | 126.54262 | 28459 ft | 431 kts | 236° |
| 2026-05-04 04:34 | 25.52546 | 126.51516 | 28821 ft | 430 kts | 236° |
| 2026-05-04 04:34 | 25.50878 | 126.48774 | 29176 ft | 429 kts | 236° |
| 2026-05-04 04:35 | 25.49217 | 126.46036 | 29529 ft | 428 kts | 236° |
| 2026-05-04 04:35 | 25.47563 | 126.43299 | 29878 ft | 427 kts | 237° |
| 2026-05-04 04:35 | 25.45917 | 126.40568 | 30228 ft | 426 kts | 237° |
| 2026-05-04 04:35 | 25.44296 | 126.37877 | 30576 ft | 425 kts | 237° |
| 2026-05-04 04:36 | 25.42654 | 126.35158 | 30930 ft | 425 kts | 237° |
| 2026-05-04 04:36 | 25.41013 | 126.32451 | 31288 ft | 423 kts | 237° |
| 2026-05-04 04:36 | 25.39373 | 126.29752 | 31647 ft | 422 kts | 237° |
| 2026-05-04 04:36 | 25.37736 | 126.27062 | 31997 ft | 421 kts | 237° |
| 2026-05-04 04:37 | 25.32857 | 126.19040 | 33004 ft | 418 kts | 237° |
| 2026-05-04 04:37 | 25.31240 | 126.16380 | 33331 ft | 417 kts | 237° |
| 2026-05-04 04:38 | 25.29621 | 126.13723 | 33642 ft | 416 kts | 237° |
| 2026-05-04 04:38 | 25.28009 | 126.11081 | 33945 ft | 415 kts | 237° |
| 2026-05-04 04:38 | 25.26394 | 126.08437 | 34070 ft | 416 kts | 237° |
| 2026-05-04 04:38 | 25.24768 | 126.05772 | 34092 ft | 421 kts | 237° |
| 2026-05-04 04:39 | 25.21470 | 126.00378 | 34094 ft | 425 kts | 237° |
| 2026-05-04 04:39 | 25.18160 | 125.94965 | 34092 ft | 425 kts | 237° |
| 2026-05-04 04:40 | 25.14852 | 125.89556 | 34091 ft | 425 kts | 237° |
| 2026-05-04 04:40 | 25.11539 | 125.84150 | 34094 ft | 425 kts | 237° |
| 2026-05-04 04:41 | 25.08237 | 125.78781 | 34096 ft | 426 kts | 237° |
| 2026-05-04 04:41 | 25.04915 | 125.73363 | 34097 ft | 427 kts | 237° |
| 2026-05-04 04:42 | 25.01594 | 125.67949 | 34091 ft | 426 kts | 236° |
| 2026-05-04 04:42 | 24.98257 | 125.62537 | 34087 ft | 427 kts | 236° |
| 2026-05-04 04:43 | 24.94915 | 125.57118 | 34085 ft | 428 kts | 237° |
| 2026-05-04 04:43 | 24.91570 | 125.51693 | 34090 ft | 428 kts | 236° |
| 2026-05-04 04:44 | 24.88221 | 125.46276 | 34090 ft | 428 kts | 236° |
| 2026-05-04 04:44 | 24.84869 | 125.40856 | 34096 ft | 428 kts | 236° |
| 2026-05-04 04:45 | 24.81511 | 125.35438 | 34096 ft | 428 kts | 236° |
| 2026-05-04 04:47 | 24.69649 | 125.16565 | 34096 ft | 428 kts | 236° |
| 2026-05-04 04:47 | 24.66240 | 125.11191 | 34095 ft | 429 kts | 236° |
| 2026-05-04 04:48 | 24.62831 | 125.05812 | 34096 ft | 429 kts | 236° |
| 2026-05-04 04:49 | 24.54298 | 124.92370 | 34092 ft | 429 kts | 236° |
| 2026-05-04 04:49 | 24.50883 | 124.86994 | 34097 ft | 429 kts | 236° |
| 2026-05-04 04:50 | 24.47457 | 124.81621 | 34097 ft | 429 kts | 236° |
| 2026-05-04 04:50 | 24.44052 | 124.76287 | 34097 ft | 430 kts | 236° |
| 2026-05-04 04:51 | 24.40603 | 124.70881 | 34098 ft | 430 kts | 236° |
| 2026-05-04 04:51 | 24.37193 | 124.65549 | 34099 ft | 430 kts | 236° |
| 2026-05-04 04:52 | 24.33762 | 124.60187 | 34100 ft | 430 kts | 236° |
| 2026-05-04 04:52 | 24.30322 | 124.54822 | 34101 ft | 430 kts | 235° |
| 2026-05-04 04:53 | 24.26887 | 124.49466 | 34099 ft | 430 kts | 235° |
| 2026-05-04 04:53 | 24.23448 | 124.44102 | 34099 ft | 430 kts | 235° |
| 2026-05-04 04:54 | 24.20010 | 124.38747 | 34100 ft | 430 kts | 235° |
| 2026-05-04 04:54 | 24.16561 | 124.33395 | 34100 ft | 430 kts | 235° |
| 2026-05-04 04:55 | 24.13112 | 124.28043 | 34099 ft | 430 kts | 235° |
| 2026-05-04 04:55 | 24.09663 | 124.22690 | 34099 ft | 430 kts | 235° |
| 2026-05-04 04:56 | 24.06212 | 124.17346 | 34098 ft | 430 kts | 235° |
| 2026-05-04 04:56 | 24.02780 | 124.12039 | 34096 ft | 430 kts | 235° |
| 2026-05-04 04:57 | 23.99323 | 124.06701 | 34096 ft | 430 kts | 235° |
| 2026-05-04 04:57 | 23.95865 | 124.01371 | 34097 ft | 429 kts | 235° |
| 2026-05-04 04:58 | 23.92445 | 123.96012 | 34101 ft | 430 kts | 236° |
| 2026-05-04 04:58 | 23.89103 | 123.90590 | 34103 ft | 430 kts | 237° |
| 2026-05-04 04:59 | 23.85763 | 123.85165 | 34107 ft | 430 kts | 236° |
| 2026-05-04 04:59 | 23.82403 | 123.79761 | 34108 ft | 430 kts | 236° |
| 2026-05-04 05:00 | 23.79034 | 123.74363 | 34108 ft | 430 kts | 236° |
| 2026-05-04 05:01 | 23.73976 | 123.66277 | 34104 ft | 430 kts | 236° |
| 2026-05-04 05:01 | 23.70607 | 123.60887 | 34104 ft | 430 kts | 236° |
| 2026-05-04 05:02 | 23.67237 | 123.55498 | 34102 ft | 430 kts | 236° |
| 2026-05-04 05:02 | 23.63884 | 123.50151 | 34103 ft | 430 kts | 236° |
| 2026-05-04 05:03 | 23.60501 | 123.44770 | 34105 ft | 430 kts | 236° |
| 2026-05-04 05:04 | 23.53741 | 123.34016 | 34108 ft | 430 kts | 236° |
| 2026-05-04 05:04 | 23.50361 | 123.28644 | 34109 ft | 430 kts | 236° |
| 2026-05-04 05:06 | 23.36830 | 123.07201 | 34105 ft | 429 kts | 236° |
| 2026-05-04 05:07 | 23.34018 | 123.02749 | 34104 ft | 430 kts | 236° |
| 2026-05-04 05:07 | 23.30559 | 122.97445 | 34107 ft | 430 kts | 233° |
| 2026-05-04 05:09 | 23.13800 | 122.74508 | 34116 ft | 431 kts | 233° |
| 2026-05-04 05:10 | 23.10122 | 122.69433 | 34116 ft | 431 kts | 232° |
| 2026-05-04 05:10 | 23.06402 | 122.64327 | 34117 ft | 431 kts | 232° |
| 2026-05-04 05:11 | 23.02683 | 122.59225 | 34114 ft | 431 kts | 232° |
| 2026-05-04 05:11 | 22.98959 | 122.54119 | 34104 ft | 431 kts | 232° |
| 2026-05-04 05:12 | 22.95239 | 122.49009 | 34092 ft | 432 kts | 232° |
| 2026-05-04 05:12 | 22.91514 | 122.43899 | 34087 ft | 432 kts | 232° |
| 2026-05-04 05:13 | 22.87778 | 122.38794 | 34074 ft | 432 kts | 232° |
| 2026-05-04 05:13 | 22.84037 | 122.33690 | 34073 ft | 432 kts | 232° |
| 2026-05-04 05:14 | 22.80300 | 122.28588 | 34067 ft | 432 kts | 232° |
| 2026-05-04 05:14 | 22.76559 | 122.23486 | 34067 ft | 433 kts | 232° |
| 2026-05-04 05:15 | 22.72814 | 122.18379 | 34062 ft | 433 kts | 232° |
| 2026-05-04 05:15 | 22.69065 | 122.13276 | 34059 ft | 433 kts | 232° |
| 2026-05-04 05:16 | 22.65317 | 122.08171 | 34054 ft | 433 kts | 232° |
| 2026-05-04 05:16 | 22.61559 | 122.03064 | 34054 ft | 434 kts | 232° |
| 2026-05-04 05:17 | 22.57793 | 121.97958 | 34054 ft | 434 kts | 232° |
| 2026-05-04 05:17 | 22.54052 | 121.92882 | 34058 ft | 434 kts | 232° |
| 2026-05-04 05:18 | 22.50288 | 121.87771 | 34060 ft | 434 kts | 232° |
| 2026-05-04 05:18 | 22.46517 | 121.82667 | 34064 ft | 435 kts | 232° |
| 2026-05-04 05:19 | 22.42739 | 121.77567 | 34064 ft | 435 kts | 232° |
| 2026-05-04 05:19 | 22.38959 | 121.72461 | 34066 ft | 435 kts | 232° |
| 2026-05-04 05:20 | 22.35177 | 121.67356 | 34065 ft | 435 kts | 232° |
| 2026-05-04 05:20 | 22.31403 | 121.62254 | 34068 ft | 435 kts | 232° |
| 2026-05-04 05:21 | 22.27626 | 121.57152 | 34066 ft | 435 kts | 232° |
| 2026-05-04 05:21 | 22.23846 | 121.52060 | 34064 ft | 435 kts | 232° |
| 2026-05-04 05:22 | 22.20056 | 121.46974 | 34065 ft | 435 kts | 232° |
| 2026-05-04 05:22 | 22.16271 | 121.41890 | 34066 ft | 435 kts | 232° |
| 2026-05-04 05:23 | 22.12488 | 121.36806 | 34066 ft | 434 kts | 232° |
| 2026-05-04 05:23 | 22.08706 | 121.31727 | 34066 ft | 434 kts | 232° |
| 2026-05-04 05:24 | 22.04941 | 121.26693 | 34069 ft | 434 kts | 232° |
| 2026-05-04 05:24 | 22.01151 | 121.21633 | 34069 ft | 434 kts | 232° |
| 2026-05-04 05:25 | 21.97359 | 121.16569 | 34068 ft | 434 kts | 232° |
| 2026-05-04 05:25 | 21.93567 | 121.11502 | 34062 ft | 435 kts | 232° |
| 2026-05-04 05:26 | 21.89764 | 121.06431 | 34062 ft | 435 kts | 232° |
| 2026-05-04 05:26 | 21.85958 | 121.01365 | 34060 ft | 435 kts | 232° |
| 2026-05-04 05:28 | 21.70722 | 120.81098 | 34029 ft | 435 kts | 232° |
| 2026-05-04 05:29 | 21.66912 | 120.76035 | 34030 ft | 435 kts | 232° |
| 2026-05-04 05:29 | 21.63122 | 120.71009 | 34024 ft | 435 kts | 232° |
| 2026-05-04 05:31 | 21.47845 | 120.50814 | 34007 ft | 435 kts | 232° |
| 2026-05-04 05:32 | 21.44025 | 120.45777 | 34013 ft | 435 kts | 232° |
| 2026-05-04 05:33 | 21.38292 | 120.38215 | 34014 ft | 435 kts | 232° |
| 2026-05-04 05:33 | 21.34469 | 120.33179 | 34011 ft | 435 kts | 232° |
| 2026-05-04 05:34 | 21.30643 | 120.28151 | 34011 ft | 435 kts | 232° |
| 2026-05-04 05:34 | 21.26811 | 120.23122 | 34005 ft | 435 kts | 232° |
| 2026-05-04 05:35 | 21.22984 | 120.18093 | 33998 ft | 436 kts | 232° |
| 2026-05-04 05:35 | 21.19159 | 120.13064 | 33997 ft | 435 kts | 232° |
| 2026-05-04 05:36 | 21.15327 | 120.08038 | 33994 ft | 436 kts | 232° |
| 2026-05-04 05:36 | 21.11484 | 120.03017 | 33995 ft | 435 kts | 232° |
| 2026-05-04 05:37 | 21.07646 | 119.98007 | 33990 ft | 435 kts | 232° |
| 2026-05-04 05:37 | 21.03808 | 119.92990 | 33986 ft | 436 kts | 232° |
| 2026-05-04 05:38 | 20.97831 | 119.85668 | 33982 ft | 436 kts | 226° |
| 2026-05-04 05:38 | 20.93562 | 119.81050 | 33981 ft | 437 kts | 226° |
| 2026-05-04 05:39 | 20.87153 | 119.74117 | 33983 ft | 437 kts | 226° |
| 2026-05-04 05:40 | 20.80751 | 119.67230 | 33984 ft | 438 kts | 226° |
| 2026-05-04 05:40 | 20.76458 | 119.62607 | 33983 ft | 438 kts | 226° |
| 2026-05-04 05:41 | 20.72167 | 119.57991 | 33985 ft | 438 kts | 226° |
| 2026-05-04 05:41 | 20.67874 | 119.53383 | 33984 ft | 438 kts | 226° |
| 2026-05-04 05:42 | 20.63566 | 119.48761 | 34367 ft | 439 kts | 226° |
| 2026-05-04 05:42 | 20.61419 | 119.46451 | 34650 ft | 438 kts | 226° |
| 2026-05-04 05:42 | 20.59270 | 119.44142 | 34926 ft | 438 kts | 226° |
| 2026-05-04 05:43 | 20.57126 | 119.41843 | 35188 ft | 437 kts | 226° |
| 2026-05-04 05:43 | 20.54978 | 119.39546 | 35434 ft | 437 kts | 226° |
| 2026-05-04 05:43 | 20.52834 | 119.37257 | 35673 ft | 436 kts | 226° |
| 2026-05-04 05:45 | 20.37859 | 119.21243 | 35971 ft | 435 kts | 226° |
| 2026-05-04 05:47 | 20.20771 | 119.03029 | 35983 ft | 436 kts | 226° |
| 2026-05-04 05:47 | 20.16481 | 118.98470 | 35981 ft | 436 kts | 226° |
| 2026-05-04 05:48 | 20.12190 | 118.93914 | 35978 ft | 436 kts | 226° |
| 2026-05-04 05:48 | 20.07904 | 118.89364 | 35976 ft | 435 kts | 226° |
| 2026-05-04 05:49 | 20.03614 | 118.84810 | 35975 ft | 436 kts | 226° |
| 2026-05-04 05:49 | 19.99325 | 118.80259 | 35976 ft | 436 kts | 226° |
| 2026-05-04 05:51 | 19.82123 | 118.62058 | 35974 ft | 436 kts | 226° |
| 2026-05-04 05:52 | 19.77821 | 118.57510 | 35977 ft | 437 kts | 226° |
| 2026-05-04 05:52 | 19.73506 | 118.52965 | 35976 ft | 437 kts | 226° |
| 2026-05-04 05:54 | 19.56278 | 118.34824 | 35981 ft | 437 kts | 226° |
| 2026-05-04 05:55 | 19.51958 | 118.30285 | 35978 ft | 437 kts | 226° |
| 2026-05-04 05:55 | 19.47636 | 118.25757 | 35982 ft | 437 kts | 226° |
| 2026-05-04 05:56 | 19.43316 | 118.21221 | 35977 ft | 437 kts | 226° |
| 2026-05-04 05:56 | 19.38997 | 118.16691 | 35980 ft | 437 kts | 226° |
| 2026-05-04 05:57 | 19.34670 | 118.12167 | 35977 ft | 437 kts | 226° |
| 2026-05-04 05:57 | 19.30342 | 118.07637 | 35982 ft | 438 kts | 226° |
| 2026-05-04 05:58 | 19.26743 | 118.03872 | 35979 ft | 438 kts | 226° |
| 2026-05-04 05:58 | 19.21681 | 117.98579 | 35984 ft | 437 kts | 226° |
| 2026-05-04 05:59 | 19.18081 | 117.94824 | 35976 ft | 438 kts | 226° |
| 2026-05-04 05:59 | 19.13746 | 117.90305 | 35976 ft | 438 kts | 226° |
| 2026-05-04 06:00 | 19.09410 | 117.85779 | 35978 ft | 438 kts | 226° |
| 2026-05-04 06:00 | 19.05070 | 117.81260 | 35976 ft | 438 kts | 226° |
| 2026-05-04 06:01 | 19.00725 | 117.76736 | 35978 ft | 438 kts | 226° |
| 2026-05-04 06:03 | 18.83302 | 117.58634 | 35981 ft | 440 kts | 226° |
| 2026-05-04 06:05 | 18.63652 | 117.38299 | 35977 ft | 441 kts | 226° |
| 2026-05-04 06:06 | 18.59277 | 117.33776 | 35977 ft | 441 kts | 226° |
| 2026-05-04 06:06 | 18.54897 | 117.29254 | 35981 ft | 441 kts | 226° |
| 2026-05-04 06:07 | 18.50526 | 117.24736 | 35977 ft | 440 kts | 226° |
| 2026-05-04 06:07 | 18.46147 | 117.20220 | 35977 ft | 441 kts | 226° |
| 2026-05-04 06:08 | 18.41759 | 117.15708 | 35982 ft | 441 kts | 226° |
| 2026-05-04 06:08 | 18.37380 | 117.11196 | 35974 ft | 441 kts | 226° |
| 2026-05-04 06:09 | 18.33026 | 117.06717 | 35980 ft | 441 kts | 225° |
| 2026-05-04 06:11 | 18.15465 | 116.88705 | 35961 ft | 440 kts | 226° |
| 2026-05-04 06:13 | 17.97918 | 116.70723 | 35952 ft | 440 kts | 225° |
| 2026-05-04 06:14 | 17.82519 | 116.55021 | 35952 ft | 441 kts | 225° |
| 2026-05-04 06:15 | 17.78117 | 116.50536 | 35950 ft | 441 kts | 225° |
| 2026-05-04 06:15 | 17.73748 | 116.46077 | 35952 ft | 441 kts | 225° |
| 2026-05-04 06:16 | 17.69348 | 116.41598 | 35952 ft | 441 kts | 225° |
| 2026-05-04 06:16 | 17.64950 | 116.37113 | 35953 ft | 441 kts | 225° |
| 2026-05-04 06:17 | 17.60534 | 116.32636 | 35954 ft | 441 kts | 225° |
| 2026-05-04 06:17 | 17.56119 | 116.28166 | 35955 ft | 441 kts | 225° |
| 2026-05-04 06:18 | 17.51707 | 116.23694 | 35955 ft | 441 kts | 225° |
| 2026-05-04 06:20 | 17.34074 | 116.05815 | 35955 ft | 441 kts | 225° |
| 2026-05-04 06:21 | 17.23035 | 115.94663 | 35959 ft | 441 kts | 225° |
| 2026-05-04 06:22 | 17.18614 | 115.90206 | 35961 ft | 441 kts | 225° |
| 2026-05-04 06:25 | 16.87661 | 115.59045 | 35964 ft | 442 kts | 225° |
| 2026-05-04 06:26 | 16.83222 | 115.54594 | 35963 ft | 443 kts | 225° |
| 2026-05-04 06:26 | 16.78781 | 115.50143 | 35963 ft | 442 kts | 225° |
| 2026-05-04 06:27 | 16.67688 | 115.39022 | 35961 ft | 442 kts | 225° |
| 2026-05-04 06:28 | 16.63242 | 115.34585 | 35960 ft | 442 kts | 225° |
| 2026-05-04 06:28 | 16.58832 | 115.30184 | 35961 ft | 442 kts | 225° |
| 2026-05-04 06:29 | 16.54395 | 115.25758 | 35959 ft | 442 kts | 225° |
| 2026-05-04 06:29 | 16.49961 | 115.21325 | 35959 ft | 442 kts | 225° |
| 2026-05-04 06:30 | 16.45525 | 115.16883 | 35958 ft | 442 kts | 225° |
| 2026-05-04 06:30 | 16.41083 | 115.12443 | 35958 ft | 443 kts | 225° |
| 2026-05-04 06:31 | 16.36631 | 115.08011 | 35961 ft | 443 kts | 225° |
| 2026-05-04 06:31 | 16.32177 | 115.03580 | 35962 ft | 443 kts | 225° |
| 2026-05-04 06:33 | 16.14389 | 114.85886 | 35961 ft | 443 kts | 225° |
| 2026-05-04 06:34 | 16.09926 | 114.81462 | 35960 ft | 444 kts | 224° |
| 2026-05-04 06:34 | 16.05457 | 114.77036 | 35961 ft | 444 kts | 225° |
| 2026-05-04 06:36 | 15.87570 | 114.59332 | 35953 ft | 445 kts | 224° |
| 2026-05-04 06:37 | 15.83096 | 114.54899 | 35951 ft | 444 kts | 224° |
| 2026-05-04 06:37 | 15.78621 | 114.50470 | 35951 ft | 444 kts | 224° |
| 2026-05-04 06:38 | 15.74141 | 114.46044 | 35950 ft | 445 kts | 224° |
| 2026-05-04 06:40 | 15.56215 | 114.28367 | 35960 ft | 446 kts | 224° |
| 2026-05-04 06:40 | 15.51725 | 114.23945 | 35961 ft | 445 kts | 224° |
| 2026-05-04 06:41 | 15.47231 | 114.19526 | 35964 ft | 445 kts | 224° |
| 2026-05-04 06:41 | 15.42740 | 114.15107 | 35964 ft | 445 kts | 224° |
| 2026-05-04 06:42 | 15.38247 | 114.10692 | 35962 ft | 445 kts | 224° |
| 2026-05-04 06:44 | 15.19423 | 113.94116 | 35965 ft | 446 kts | 216° |
| 2026-05-04 06:44 | 15.14377 | 113.90380 | 35967 ft | 446 kts | 217° |
| 2026-05-04 06:45 | 15.09329 | 113.86636 | 35969 ft | 446 kts | 217° |
| 2026-05-04 06:45 | 15.04282 | 113.82893 | 35970 ft | 446 kts | 216° |
| 2026-05-04 06:46 | 14.99234 | 113.79153 | 35969 ft | 446 kts | 216° |
| 2026-05-04 06:46 | 14.94180 | 113.75411 | 35969 ft | 447 kts | 216° |
| 2026-05-04 06:48 | 14.73937 | 113.60470 | 35973 ft | 447 kts | 216° |
| 2026-05-04 06:50 | 14.53716 | 113.45552 | 35971 ft | 447 kts | 216° |
| 2026-05-04 06:51 | 14.48643 | 113.41829 | 35963 ft | 447 kts | 216° |
| 2026-05-04 06:51 | 14.43581 | 113.38096 | 35960 ft | 447 kts | 216° |
| 2026-05-04 06:52 | 14.38528 | 113.34355 | 35956 ft | 447 kts | 216° |
| 2026-05-04 06:52 | 14.33467 | 113.30612 | 35954 ft | 447 kts | 216° |
| 2026-05-04 06:53 | 14.29262 | 113.27506 | 35954 ft | 447 kts | 216° |
| 2026-05-04 06:53 | 14.24204 | 113.23775 | 35957 ft | 447 kts | 216° |
| 2026-05-04 06:54 | 14.19151 | 113.20050 | 35957 ft | 446 kts | 216° |
| 2026-05-04 06:54 | 14.14096 | 113.16324 | 35959 ft | 447 kts | 216° |
| 2026-05-04 06:55 | 14.09033 | 113.12603 | 35960 ft | 447 kts | 216° |
| 2026-05-04 06:55 | 14.03967 | 113.08874 | 35962 ft | 447 kts | 216° |
| 2026-05-04 06:57 | 13.83657 | 112.93970 | 35960 ft | 449 kts | 216° |
| 2026-05-04 06:58 | 13.78598 | 112.90269 | 35960 ft | 449 kts | 216° |
| 2026-05-04 06:58 | 13.73505 | 112.86541 | 35961 ft | 450 kts | 216° |
| 2026-05-04 06:59 | 13.68407 | 112.82812 | 35961 ft | 449 kts | 216° |
| 2026-05-04 06:59 | 13.63312 | 112.79092 | 35959 ft | 449 kts | 216° |
| 2026-05-04 07:01 | 13.42934 | 112.64220 | 35960 ft | 450 kts | 216° |
| 2026-05-04 07:02 | 13.37822 | 112.60497 | 35962 ft | 450 kts | 216° |
| 2026-05-04 07:02 | 13.32711 | 112.56778 | 35963 ft | 451 kts | 216° |
| 2026-05-04 07:03 | 13.27594 | 112.53055 | 35962 ft | 451 kts | 216° |
| 2026-05-04 07:03 | 13.22489 | 112.49330 | 35963 ft | 451 kts | 216° |
| 2026-05-04 07:04 | 13.17370 | 112.45604 | 35962 ft | 451 kts | 216° |
| 2026-05-04 07:04 | 13.12248 | 112.41887 | 35962 ft | 451 kts | 216° |
| 2026-05-04 07:05 | 13.07130 | 112.38167 | 35962 ft | 451 kts | 216° |
| 2026-05-04 07:05 | 13.02014 | 112.34446 | 35962 ft | 451 kts | 216° |
| 2026-05-04 07:06 | 12.94320 | 112.28865 | 35961 ft | 452 kts | 216° |
| 2026-05-04 07:07 | 12.89225 | 112.25167 | 35961 ft | 452 kts | 216° |
| 2026-05-04 07:09 | 12.68658 | 112.10275 | 35960 ft | 453 kts | 216° |
| 2026-05-04 07:09 | 12.63511 | 112.06554 | 35960 ft | 453 kts | 216° |
| 2026-05-04 07:10 | 12.58360 | 112.02824 | 35959 ft | 454 kts | 216° |
| 2026-05-04 07:12 | 12.37706 | 111.87905 | 35961 ft | 455 kts | 216° |
| 2026-05-04 07:12 | 12.32538 | 111.84175 | 35962 ft | 454 kts | 216° |
| 2026-05-04 07:13 | 12.27385 | 111.80421 | 35961 ft | 455 kts | 216° |
| 2026-05-04 07:13 | 12.22236 | 111.76662 | 35956 ft | 455 kts | 216° |
| 2026-05-04 07:14 | 12.09364 | 111.67325 | 35957 ft | 455 kts | 216° |
| 2026-05-04 07:15 | 12.04201 | 111.63584 | 35955 ft | 455 kts | 216° |
| 2026-05-04 07:15 | 11.99044 | 111.59847 | 35955 ft | 455 kts | 216° |
| 2026-05-04 07:16 | 11.93881 | 111.56103 | 35948 ft | 455 kts | 216° |
| 2026-05-04 07:16 | 11.88716 | 111.52358 | 35948 ft | 455 kts | 216° |
| 2026-05-04 07:17 | 11.83548 | 111.48610 | 35947 ft | 456 kts | 216° |
| 2026-05-04 07:17 | 11.78377 | 111.44868 | 35948 ft | 455 kts | 216° |
| 2026-05-04 07:18 | 11.73203 | 111.41134 | 35947 ft | 455 kts | 216° |
| 2026-05-04 07:18 | 11.68035 | 111.37403 | 35947 ft | 455 kts | 216° |
| 2026-05-04 07:19 | 11.62864 | 111.33663 | 35947 ft | 455 kts | 216° |
| 2026-05-04 07:19 | 11.57693 | 111.29927 | 35949 ft | 455 kts | 216° |
| 2026-05-04 07:20 | 11.52519 | 111.26200 | 35947 ft | 455 kts | 216° |
| 2026-05-04 07:20 | 11.47346 | 111.22468 | 35948 ft | 456 kts | 216° |
| 2026-05-04 07:22 | 11.26638 | 111.07566 | 35946 ft | 455 kts | 215° |
| 2026-05-04 07:23 | 11.21476 | 111.03908 | 35945 ft | 455 kts | 215° |
| 2026-05-04 07:23 | 11.16244 | 111.00205 | 35944 ft | 455 kts | 215° |
| 2026-05-04 07:24 | 11.11087 | 110.96543 | 35944 ft | 455 kts | 215° |
| 2026-05-04 07:24 | 11.05892 | 110.92855 | 35946 ft | 455 kts | 215° |
| 2026-05-04 07:26 | 10.85094 | 110.78121 | 35945 ft | 455 kts | 215° |
| 2026-05-04 07:27 | 10.79889 | 110.74443 | 35946 ft | 455 kts | 215° |
| 2026-05-04 07:27 | 10.74687 | 110.70774 | 35952 ft | 455 kts | 215° |
| 2026-05-04 07:28 | 10.69495 | 110.67097 | 35954 ft | 455 kts | 215° |
| 2026-05-04 07:28 | 10.64295 | 110.63416 | 35956 ft | 455 kts | 215° |
| 2026-05-04 07:29 | 10.59093 | 110.59743 | 35955 ft | 455 kts | 214° |
| 2026-05-04 07:29 | 10.53884 | 110.56080 | 35949 ft | 455 kts | 214° |
| 2026-05-04 07:30 | 10.48685 | 110.52404 | 35944 ft | 455 kts | 214° |
| 2026-05-04 07:30 | 10.43489 | 110.48733 | 35946 ft | 455 kts | 214° |
| 2026-05-04 07:31 | 10.38285 | 110.45072 | 35946 ft | 455 kts | 214° |
| 2026-05-04 07:33 | 10.17526 | 110.30449 | 35954 ft | 455 kts | 214° |
| 2026-05-04 07:33 | 10.12342 | 110.26779 | 35948 ft | 454 kts | 214° |
| 2026-05-04 07:34 | 10.07149 | 110.23107 | 35949 ft | 455 kts | 214° |
| 2026-05-04 07:34 | 10.01958 | 110.19435 | 35953 ft | 455 kts | 214° |
| 2026-05-04 07:35 | 9.96760 | 110.15764 | 35955 ft | 455 kts | 214° |
| 2026-05-04 07:35 | 9.91562 | 110.12095 | 35957 ft | 455 kts | 214° |
| 2026-05-04 07:36 | 9.86363 | 110.08435 | 35957 ft | 455 kts | 214° |
| 2026-05-04 07:38 | 9.65605 | 109.93806 | 35949 ft | 455 kts | 214° |
| 2026-05-04 07:38 | 9.60412 | 109.90144 | 35947 ft | 455 kts | 214° |
| 2026-05-04 07:39 | 9.55221 | 109.86480 | 35944 ft | 455 kts | 214° |
| 2026-05-04 07:39 | 9.50023 | 109.82823 | 35944 ft | 454 kts | 214° |
| 2026-05-04 07:40 | 9.44827 | 109.79172 | 35944 ft | 455 kts | 214° |
| 2026-05-04 07:40 | 9.39631 | 109.75518 | 35945 ft | 455 kts | 214° |
| 2026-05-04 07:41 | 9.34429 | 109.71866 | 35948 ft | 455 kts | 214° |
| 2026-05-04 07:41 | 9.29224 | 109.68215 | 35948 ft | 455 kts | 214° |
| 2026-05-04 07:42 | 9.24020 | 109.64570 | 35946 ft | 455 kts | 214° |
| 2026-05-04 07:42 | 9.18818 | 109.60926 | 35946 ft | 455 kts | 214° |
| 2026-05-04 07:43 | 9.14498 | 109.57893 | 35945 ft | 455 kts | 214° |
| 2026-05-04 07:43 | 9.08417 | 109.53623 | 35944 ft | 455 kts | 214° |
| 2026-05-04 07:44 | 9.03250 | 109.49994 | 35941 ft | 455 kts | 214° |
| 2026-05-04 07:44 | 8.98045 | 109.46357 | 35939 ft | 455 kts | 214° |
| 2026-05-04 07:45 | 8.92838 | 109.42717 | 35937 ft | 455 kts | 214° |
| 2026-05-04 07:45 | 8.88473 | 109.39663 | 35936 ft | 455 kts | 214° |
| 2026-05-04 07:46 | 8.83298 | 109.36043 | 35936 ft | 455 kts | 214° |
| 2026-05-04 07:46 | 8.78086 | 109.32409 | 35936 ft | 455 kts | 214° |
| 2026-05-04 07:47 | 8.72868 | 109.28778 | 35935 ft | 455 kts | 214° |
| 2026-05-04 07:49 | 8.51989 | 109.14285 | 35923 ft | 456 kts | 214° |
| 2026-05-04 07:49 | 8.46768 | 109.10652 | 35909 ft | 455 kts | 214° |
| 2026-05-04 07:50 | 8.41540 | 109.07037 | 35902 ft | 456 kts | 213° |
| 2026-05-04 07:50 | 8.36308 | 109.03414 | 35901 ft | 456 kts | 214° |
| 2026-05-04 07:51 | 8.31090 | 108.99782 | 35896 ft | 456 kts | 214° |
| 2026-05-04 07:51 | 8.25905 | 108.96172 | 35892 ft | 456 kts | 213° |
| 2026-05-04 07:52 | 8.20676 | 108.92552 | 35891 ft | 456 kts | 213° |
| 2026-05-04 07:52 | 8.15444 | 108.88939 | 35889 ft | 456 kts | 213° |
| 2026-05-04 07:54 | 7.94526 | 108.74455 | 35890 ft | 456 kts | 213° |
| 2026-05-04 07:55 | 7.89289 | 108.70835 | 35892 ft | 456 kts | 213° |
| 2026-05-04 07:55 | 7.84055 | 108.67217 | 35890 ft | 456 kts | 213° |
| 2026-05-04 07:56 | 7.78829 | 108.63603 | 35891 ft | 456 kts | 213° |
| 2026-05-04 07:56 | 7.73598 | 108.59987 | 35891 ft | 456 kts | 213° |
| 2026-05-04 07:57 | 7.68361 | 108.56378 | 35890 ft | 456 kts | 213° |
| 2026-05-04 07:57 | 7.63135 | 108.52768 | 35889 ft | 455 kts | 213° |
| 2026-05-04 07:58 | 7.57940 | 108.49178 | 35889 ft | 455 kts | 213° |
| 2026-05-04 07:58 | 7.52677 | 108.45550 | 35887 ft | 455 kts | 213° |
| 2026-05-04 07:59 | 7.47447 | 108.41940 | 35890 ft | 455 kts | 213° |
| 2026-05-04 07:59 | 7.42259 | 108.38353 | 35894 ft | 455 kts | 213° |
| 2026-05-04 08:00 | 7.37027 | 108.34748 | 35892 ft | 456 kts | 213° |
| 2026-05-04 08:02 | 7.16106 | 108.20324 | 35898 ft | 455 kts | 213° |
| 2026-05-04 08:02 | 7.10879 | 108.16726 | 35896 ft | 455 kts | 213° |
| 2026-05-04 08:03 | 7.05655 | 108.13125 | 35897 ft | 455 kts | 213° |
| 2026-05-04 08:03 | 7.00449 | 108.09497 | 35895 ft | 455 kts | 214° |
| 2026-05-04 08:04 | 6.95250 | 108.05844 | 35894 ft | 456 kts | 214° |
| 2026-05-04 08:04 | 6.90040 | 108.02207 | 35892 ft | 456 kts | 214° |
| 2026-05-04 08:05 | 6.84825 | 107.98587 | 35892 ft | 455 kts | 214° |
| 2026-05-04 08:05 | 6.79611 | 107.94967 | 35889 ft | 455 kts | 214° |
| 2026-05-04 08:06 | 6.74406 | 107.91340 | 35888 ft | 455 kts | 214° |
| 2026-05-04 08:06 | 6.69202 | 107.87712 | 35891 ft | 455 kts | 214° |
| 2026-05-04 08:08 | 6.48375 | 107.73224 | 35888 ft | 455 kts | 214° |
| 2026-05-04 08:11 | 6.24970 | 107.56957 | 35883 ft | 455 kts | 214° |
| 2026-05-04 08:11 | 6.17156 | 107.51538 | 35883 ft | 455 kts | 214° |
| 2026-05-04 08:12 | 6.11944 | 107.47924 | 35875 ft | 456 kts | 214° |
| 2026-05-04 08:12 | 6.06733 | 107.44305 | 35882 ft | 455 kts | 214° |
| 2026-05-04 08:13 | 6.01522 | 107.40688 | 35881 ft | 455 kts | 214° |
| 2026-05-04 08:13 | 5.96314 | 107.37075 | 35880 ft | 455 kts | 214° |
| 2026-05-04 08:14 | 5.91104 | 107.33459 | 35881 ft | 455 kts | 214° |
| 2026-05-04 08:16 | 5.70277 | 107.19025 | 35882 ft | 455 kts | 214° |
| 2026-05-04 08:16 | 5.65063 | 107.15416 | 35880 ft | 455 kts | 214° |
| 2026-05-04 08:17 | 5.59854 | 107.11804 | 35882 ft | 455 kts | 214° |
| 2026-05-04 08:17 | 5.54646 | 107.08187 | 35882 ft | 455 kts | 214° |
| 2026-05-04 08:19 | 5.33840 | 106.93808 | 35862 ft | 454 kts | 214° |
| 2026-05-04 08:20 | 5.28635 | 106.90199 | 35866 ft | 455 kts | 214° |
| 2026-05-04 08:20 | 5.23426 | 106.86599 | 35862 ft | 455 kts | 214° |
| 2026-05-04 08:21 | 5.18213 | 106.83000 | 35861 ft | 455 kts | 214° |
| 2026-05-04 08:21 | 5.13002 | 106.79398 | 35857 ft | 455 kts | 214° |
| 2026-05-04 08:22 | 5.07790 | 106.75796 | 35869 ft | 455 kts | 214° |
| 2026-05-04 08:24 | 4.86944 | 106.61397 | 35854 ft | 455 kts | 214° |
| 2026-05-04 08:24 | 4.81741 | 106.57794 | 35861 ft | 455 kts | 214° |
| 2026-05-04 08:25 | 4.76528 | 106.54197 | 35856 ft | 455 kts | 213° |
| 2026-05-04 08:25 | 4.71310 | 106.50606 | 35857 ft | 455 kts | 214° |
| 2026-05-04 08:27 | 4.50489 | 106.36241 | 35865 ft | 454 kts | 213° |
| 2026-05-04 08:28 | 4.45278 | 106.32652 | 35853 ft | 454 kts | 213° |
| 2026-05-04 08:28 | 4.40074 | 106.29066 | 35852 ft | 454 kts | 213° |
| 2026-05-04 08:29 | 4.34866 | 106.25477 | 35851 ft | 454 kts | 214° |
| 2026-05-04 08:31 | 4.17449 | 106.07299 | 35853 ft | 456 kts | 230° |
| 2026-05-04 08:33 | 4.01476 | 105.87613 | 35853 ft | 456 kts | 230° |
| 2026-05-04 08:35 | 3.85454 | 105.67899 | 35864 ft | 456 kts | 230° |
| 2026-05-04 08:35 | 3.82127 | 105.63808 | 35853 ft | 456 kts | 230° |
| 2026-05-04 08:37 | 3.68145 | 105.46590 | 35855 ft | 455 kts | 230° |
| 2026-05-04 08:38 | 3.64156 | 105.41668 | 35858 ft | 455 kts | 230° |
| 2026-05-04 08:38 | 3.60161 | 105.36746 | 35863 ft | 455 kts | 230° |
| 2026-05-04 08:40 | 3.44199 | 105.17057 | 35855 ft | 455 kts | 230° |
| 2026-05-04 08:41 | 3.40210 | 105.12139 | 35852 ft | 455 kts | 230° |
| 2026-05-04 08:41 | 3.36223 | 105.07216 | 35849 ft | 455 kts | 230° |
| 2026-05-04 08:42 | 3.32232 | 105.02300 | 35855 ft | 455 kts | 230° |
| 2026-05-04 08:42 | 3.28265 | 104.97413 | 35851 ft | 455 kts | 230° |
| 2026-05-04 08:43 | 3.24275 | 104.92503 | 35851 ft | 455 kts | 230° |
| 2026-05-04 08:43 | 3.20286 | 104.87594 | 35852 ft | 455 kts | 230° |
| 2026-05-04 08:44 | 3.16286 | 104.82693 | 35847 ft | 455 kts | 230° |
| 2026-05-04 08:44 | 3.14285 | 104.80243 | 35700 ft | 455 kts | 230° |
| 2026-05-04 08:46 | 3.00411 | 104.63482 | 32228 ft | 437 kts | 226° |
| 2026-05-04 08:46 | 2.98330 | 104.61279 | 31741 ft | 434 kts | 225° |
| 2026-05-04 08:46 | 2.96240 | 104.59115 | 31265 ft | 431 kts | 225° |
| 2026-05-04 08:46 | 2.94160 | 104.56963 | 30802 ft | 429 kts | 225° |
| 2026-05-04 08:47 | 2.92130 | 104.54844 | 30344 ft | 426 kts | 226° |
| 2026-05-04 08:47 | 2.90103 | 104.52703 | 29935 ft | 422 kts | 226° |
| 2026-05-04 08:47 | 2.88113 | 104.50592 | 29798 ft | 414 kts | 226° |
| 2026-05-04 08:47 | 2.86144 | 104.48505 | 29299 ft | 415 kts | 226° |
| 2026-05-04 08:48 | 2.84142 | 104.46379 | 28617 ft | 419 kts | 226° |
| 2026-05-04 08:48 | 2.82163 | 104.44267 | 28250 ft | 415 kts | 226° |
| 2026-05-04 08:48 | 2.80199 | 104.42166 | 27839 ft | 412 kts | 226° |
| 2026-05-04 08:48 | 2.78249 | 104.40078 | 27415 ft | 410 kts | 226° |
| 2026-05-04 08:49 | 2.76311 | 104.38000 | 26994 ft | 408 kts | 226° |
| 2026-05-04 08:50 | 2.64795 | 104.25675 | 24314 ft | 401 kts | 226° |
| 2026-05-04 08:50 | 2.62898 | 104.23639 | 23857 ft | 400 kts | 226° |
| 2026-05-04 08:51 | 2.61000 | 104.21604 | 23390 ft | 399 kts | 226° |
| 2026-05-04 08:51 | 2.59109 | 104.19579 | 22918 ft | 398 kts | 226° |
| 2026-05-04 08:51 | 2.57235 | 104.17572 | 22443 ft | 392 kts | 226° |
| 2026-05-04 08:51 | 2.55390 | 104.15600 | 21991 ft | 384 kts | 226° |
| 2026-05-04 08:52 | 2.53577 | 104.13672 | 21532 ft | 377 kts | 224° |
| 2026-05-04 08:52 | 2.51557 | 104.12056 | 21086 ft | 369 kts | 210° |
| 2026-05-04 08:52 | 2.49270 | 104.11015 | 20652 ft | 360 kts | 195° |
| 2026-05-04 08:52 | 2.46832 | 104.10562 | 20403 ft | 351 kts | 182° |
| 2026-05-04 08:53 | 2.44393 | 104.10528 | 20144 ft | 351 kts | 179° |
| 2026-05-04 08:54 | 2.28459 | 104.10519 | 18310 ft | 341 kts | 179° |
| 2026-05-04 08:55 | 2.26085 | 104.10519 | 18037 ft | 340 kts | 179° |
| 2026-05-04 08:55 | 2.23725 | 104.10520 | 17765 ft | 339 kts | 179° |
| 2026-05-04 08:55 | 2.21371 | 104.10520 | 17492 ft | 337 kts | 179° |
| 2026-05-04 08:55 | 2.19030 | 104.10519 | 17218 ft | 336 kts | 179° |
| 2026-05-04 08:57 | 2.02937 | 104.10522 | 15397 ft | 322 kts | 179° |
| 2026-05-04 09:01 | 1.75004 | 104.10630 | 12533 ft | 274 kts | 179° |
| 2026-05-04 09:01 | 1.73100 | 104.10638 | 12326 ft | 273 kts | 179° |
| 2026-05-04 09:01 | 1.71205 | 104.10642 | 12120 ft | 272 kts | 179° |
| 2026-05-04 09:01 | 1.69317 | 104.10650 | 11917 ft | 271 kts | 179° |
| 2026-05-04 09:02 | 1.67435 | 104.10660 | 11704 ft | 270 kts | 179° |
| 2026-05-04 09:02 | 1.65556 | 104.10666 | 11493 ft | 270 kts | 180° |
| 2026-05-04 09:02 | 1.63683 | 104.10669 | 11282 ft | 269 kts | 180° |
| 2026-05-04 09:02 | 1.61818 | 104.10679 | 11073 ft | 268 kts | 177° |
| 2026-05-04 09:03 | 1.59997 | 104.10911 | 10870 ft | 267 kts | 171° |
| 2026-05-04 09:03 | 1.58160 | 104.11188 | 10768 ft | 267 kts | 171° |
| 2026-05-04 09:03 | 1.56324 | 104.11461 | 10587 ft | 267 kts | 171° |
| 2026-05-04 09:03 | 1.54488 | 104.11734 | 10384 ft | 266 kts | 172° |
| 2026-05-04 09:04 | 1.52659 | 104.12004 | 10178 ft | 266 kts | 172° |
| 2026-05-04 09:04 | 1.50833 | 104.12270 | 9967 ft | 265 kts | 172° |
| 2026-05-04 09:04 | 1.49011 | 104.12536 | 9762 ft | 264 kts | 172° |
| 2026-05-04 09:04 | 1.47196 | 104.12796 | 9555 ft | 264 kts | 174° |
| 2026-05-04 09:05 | 1.45372 | 104.12734 | 9349 ft | 262 kts | 192° |
| 2026-05-04 09:05 | 1.43652 | 104.12157 | 9147 ft | 261 kts | 204° |
| 2026-05-04 09:05 | 1.41985 | 104.11437 | 8941 ft | 261 kts | 204° |
| 2026-05-04 09:05 | 1.40319 | 104.10732 | 8734 ft | 260 kts | 203° |
| 2026-05-04 09:06 | 1.38650 | 104.10031 | 8533 ft | 259 kts | 203° |
| 2026-05-04 09:07 | 1.27168 | 104.05183 | 7135 ft | 253 kts | 203° |
| 2026-05-04 09:08 | 1.25552 | 104.04499 | 6943 ft | 252 kts | 203° |
| 2026-05-04 09:08 | 1.23942 | 104.03816 | 6744 ft | 251 kts | 203° |
| 2026-05-04 09:08 | 1.22340 | 104.03133 | 6549 ft | 250 kts | 203° |
| 2026-05-04 09:08 | 1.20746 | 104.02448 | 6310 ft | 249 kts | 206° |
| 2026-05-04 09:09 | 1.19364 | 104.01403 | 5628 ft | 253 kts | 232° |
| 2026-05-04 09:09 | 1.18592 | 103.99838 | 4953 ft | 254 kts | 259° |
| 2026-05-04 09:09 | 1.18609 | 103.98076 | 4271 ft | 257 kts | 285° |
| 2026-05-04 09:09 | 1.19425 | 103.96500 | 3583 ft | 259 kts | 312° |
| 2026-05-04 09:10 | 1.20711 | 103.95233 | 2928 ft | 260 kts | 316° |
| 2026-05-04 09:10 | 1.21998 | 103.94022 | 2663 ft | 246 kts | 320° |
| 2026-05-04 09:10 | 1.23490 | 103.93332 | 2387 ft | 235 kts | 354° |
| 2026-05-04 09:10 | 1.25038 | 103.93570 | 2120 ft | 220 kts | 22° |
| 2026-05-04 09:11 | 1.26399 | 103.94150 | 1855 ft | 206 kts | 23° |
| 2026-05-04 09:11 | 1.27674 | 103.94693 | 1597 ft | 193 kts | 22° |
| 2026-05-04 09:11 | 1.28860 | 103.95195 | 1330 ft | 177 kts | 22° |
| 2026-05-04 09:11 | 1.29932 | 103.95648 | 1106 ft | 163 kts | 22° |
| 2026-05-04 09:12 | 1.30939 | 103.96073 | 901 ft | 153 kts | 22° |
| 2026-05-04 09:12 | 1.31905 | 103.96481 | 706 ft | 149 kts | 22° |
| 2026-05-04 09:14 | 1.36681 | 103.98542 | 30 ft | 17 kts | 45° |
| 2026-05-04 09:14 | 1.36743 | 103.98622 | 30 ft | 8 kts | 69° |
| 2026-05-04 09:14 | 1.36734 | 103.98679 | 30 ft | 9 kts | 127° |
| 2026-05-04 09:14 | 1.36670 | 103.98688 | 30 ft | 11 kts | 202° |
| 2026-05-04 09:15 | 1.36593 | 103.98655 | 30 ft | 13 kts | 203° |
| 2026-05-04 09:15 | 1.36501 | 103.98616 | 30 ft | 16 kts | 202° |